Portada
METAR-TAF:

METAR-TAF

Aeroports :

Aeroport Internacional de Hong Kong

Hong Kong, Xina

latitud: 22-19N, longitud: 113-55E, altitud: 9 m

Observació

L'informe es va fer fa 30 minuts, a les 03:30 UTC
Vent 9 kt del Est/Nord-Est
Temperatura 29°C
Humitat 52%
Pressió 1020 hPa
Visibilitat 10 km o més
Escasses núvols a una alçada de 3000 ft

METAR: VHHH 150330Z 06009KT 9999 FEW030 29/18 Q1020 NOSIG

Hora: 12:00 (04:00 UTC)

Pronòstic

L'informe es va fer fa 5 hores i 0 minuts, a les 23:00 UTC
Pronòstic vàlid del 15 a les 00 UTC al 16 a les 06 UTC
Vent 15 kt del Est/Nord-Est
Visibilitat: 9000 m
Escasses núvols a una alçada de 2000 ft
Núvols disperses a una alçada de 3500 ft

TAF: VHHH 142300Z 1500/1606 07015KT 9000 FEW020 SCT035 TX29/1506Z TX30/1606Z TN25/1522Z

Observacions i pronòstics meteorològics de més de 4000 aeroports (METAR i TAF).

Les estacions disponibles són els punts grocs i vermells al mapa.

Posi el ratolí al punt desitjat per veure el nom de l'estació.

Feu clic per veure les observacions i els pronòstics meteorològics.

Per canviar el mapa: feu clic els botons verds amb una creu de color negre per apropar; al botó verd amb un guió per allunyar la imatge; o en les fletxes verdes per a mapes adjacents.


METAR-TAF: